Terminal Aerodrome Forecast
Issued by NWS Key West, FL

Home | Current Version | Previous Version | Text Only | Print | Product List | Glossary On
Versions: 1 2 3 4 5 6 7 8 9 10 11 12 13 14 15 16 17 18 19 20 21 22 23 24 25 26 27 28 29 30 31 32 33 34 35 36 37 38 39 40 41 42 43 44
000
FTUS42 KKEY 022338
TAFEYW
TAF
KEYW 022338Z 0300/0324 12006KT P6SM -RA BKN060 OVC110
     FM030600 10010KT 4SM SHRA BR BKN015
      TEMPO 0309/0313 VRB20KT 2SM TSRA BR BKN007CB
     FM031300 13008KT 4SM SHRA BR BKN025
      TEMPO 0313/0317 VRB20KT 2SM TSRA BR BKN015CB
     FM031700 14008KT 4SM SHRA BR BKN025=

USA.gov is the U.S. government's official web portal to all federal, state and local government web resources and services.